createdAt,value
2015-10-26T00:00:24.646Z,7.3
2015-10-26T00:01:26.946Z,7.3
2015-10-26T00:02:25.417Z,7.2
2015-10-26T00:03:27.717Z,7.3
2015-10-26T00:04:30.080Z,7.2
2015-10-26T00:05:31.816Z,7.3
2015-10-26T00:06:30.288Z,7.2
2015-10-26T00:07:32.571Z,7.2
2015-10-26T00:08:34.872Z,7.3
2015-10-26T00:09:33.343Z,7.2
2015-10-26T00:10:31.782Z,7.3
2015-10-26T00:11:30.254Z,7.2
2015-10-26T00:12:28.710Z,7.2
2015-10-26T00:13:27.166Z,7.2
2015-10-26T00:14:25.685Z,7.2
2015-10-26T00:15:27.421Z,7.2
2015-10-26T00:16:25.877Z,7.2
2015-10-26T00:17:24.333Z,7.2
2015-10-26T00:18:22.789Z,7.2
2015-10-26T00:19:21.246Z,7.2
2015-10-26T00:20:19.716Z,7.2
2015-10-26T00:21:18.188Z,7.2
2015-10-26T00:22:16.626Z,7.2
2015-10-26T00:23:15.082Z,7.2
2015-10-26T00:24:13.600Z,7.2
2015-10-26T00:25:15.338Z,7.2
2015-10-26T00:26:13.793Z,7.2
2015-10-26T00:27:12.249Z,7.2
2015-10-26T00:28:10.704Z,7.2
2015-10-26T00:29:09.427Z,7.2
2015-10-26T00:30:07.882Z,7.2
2015-10-26T00:31:06.338Z,7.1
2015-10-26T00:32:04.794Z,7.1
2015-10-26T00:33:03.249Z,7.2
2015-10-26T00:34:01.768Z,7.1
2015-10-26T00:35:03.504Z,7.1
2015-10-26T00:36:01.960Z,7.1
2015-10-26T00:37:00.417Z,7.1
2015-10-26T00:37:58.873Z,7.1
2015-10-26T00:39:01.188Z,7.1
2015-10-26T00:40:03.503Z,7.1
2015-10-26T00:41:05.787Z,7.1
2015-10-26T00:42:08.102Z,7.1
2015-10-26T00:43:10.402Z,7
2015-10-26T00:44:12.764Z,7
2015-10-26T00:45:14.501Z,7
2015-10-26T00:46:16.817Z,7
2015-10-26T00:47:19.116Z,7
2015-10-26T00:48:21.431Z,7
2015-10-26T00:49:23.731Z,7
2015-10-26T00:50:26.031Z,6.9
2015-10-26T00:51:28.346Z,6.9
2015-10-26T00:52:30.646Z,6.9
2015-10-26T00:53:32.962Z,6.9
2015-10-26T00:54:35.323Z,6.9
2015-10-26T00:55:37.059Z,6.9
2015-10-26T00:56:39.360Z,6.9
2015-10-26T00:57:41.675Z,6.9
2015-10-26T00:58:43.975Z,6.9
2015-10-26T00:59:46.290Z,6.9
2015-10-26T01:00:48.590Z,6.9
2015-10-26T01:01:50.904Z,6.9
2015-10-26T01:02:53.204Z,6.9
2015-10-26T01:03:55.520Z,6.9
2015-10-26T01:04:57.881Z,6.9
2015-10-26T01:05:59.619Z,6.9
2015-10-26T01:07:01.918Z,6.9
2015-10-26T01:08:04.234Z,6.9
2015-10-26T01:09:06.533Z,6.9
2015-10-26T01:10:08.849Z,6.9
2015-10-26T01:11:11.148Z,6.9
2015-10-26T01:12:13.464Z,6.8
2015-10-26T01:13:15.763Z,6.8
2015-10-26T01:14:18.079Z,6.8
2015-10-26T01:15:20.440Z,6.8
2015-10-26T01:16:22.178Z,6.8
2015-10-26T01:17:24.478Z,6.8
2015-10-26T01:18:26.792Z,6.8
2015-10-26T01:19:29.092Z,6.8
2015-10-26T01:20:31.407Z,6.8
2015-10-26T01:21:33.706Z,6.7
2015-10-26T01:22:36.009Z,6.7
2015-10-26T01:23:38.324Z,6.7
2015-10-26T01:24:40.625Z,6.7
2015-10-26T01:25:42.986Z,6.7
2015-10-26T01:26:44.723Z,6.7
2015-10-26T01:27:47.038Z,6.7
2015-10-26T01:28:49.370Z,6.7
2015-10-26T01:29:51.653Z,6.7
2015-10-26T01:30:53.953Z,6.7
2015-10-26T01:31:56.268Z,6.7
2015-10-26T01:32:58.583Z,6.6
2015-10-26T01:34:00.883Z,6.6
2015-10-26T01:35:03.199Z,6.6
2015-10-26T01:36:05.561Z,6.6
2015-10-26T01:37:07.297Z,6.6
2015-10-26T01:38:09.597Z,6.6
2015-10-26T01:39:11.913Z,6.5
2015-10-26T01:40:14.212Z,6.5
2015-10-26T01:41:16.277Z,6.5
2015-10-26T01:42:18.327Z,6.5
2015-10-26T01:43:20.391Z,6.5
2015-10-26T01:44:22.176Z,6.5
2015-10-26T01:45:23.976Z,6.5
2015-10-26T01:46:25.822Z,6.4
2015-10-26T01:47:27.560Z,6.4
2015-10-26T01:48:29.360Z,6.4
2015-10-26T01:49:31.158Z,6.4
2015-10-26T01:50:32.943Z,6.4
2015-10-26T01:51:34.743Z,6.4
2015-10-26T01:52:36.542Z,6.3
2015-10-26T01:53:38.342Z,6.3
2015-10-26T01:54:40.127Z,6.3
2015-10-26T01:55:41.925Z,6.3
2015-10-26T01:56:43.788Z,6.3
2015-10-26T01:57:45.525Z,6.3
2015-10-26T01:58:47.308Z,6.3
2015-10-26T01:59:49.108Z,6.2
2015-10-26T02:00:50.907Z,6.2
2015-10-26T02:01:52.707Z,6.2
2015-10-26T02:02:54.491Z,6.2
2015-10-26T02:03:56.291Z,6.2
2015-10-26T02:04:58.090Z,6.1
2015-10-26T02:05:59.891Z,6.1
2015-10-26T02:07:01.737Z,6.1
2015-10-26T02:08:03.473Z,6.1
2015-10-26T02:09:05.273Z,6.1
2015-10-26T02:10:07.074Z,6.1
2015-10-26T02:11:08.873Z,6.1
2015-10-26T02:12:10.657Z,6.1
2015-10-26T02:13:12.456Z,6.1
2015-10-26T02:14:14.257Z,6.1
2015-10-26T02:15:16.056Z,6
2015-10-26T02:16:17.855Z,6
2015-10-26T02:17:19.718Z,6
2015-10-26T02:18:21.454Z,6
2015-10-26T02:19:23.238Z,6
2015-10-26T02:20:25.037Z,6
2015-10-26T02:21:26.837Z,5.9
2015-10-26T02:22:28.637Z,5.9
2015-10-26T02:23:30.422Z,5.9
2015-10-26T02:24:32.221Z,5.9
2015-10-26T02:25:34.020Z,5.9
2015-10-26T02:26:35.836Z,5.9
2015-10-26T02:27:37.667Z,5.8
2015-10-26T02:28:39.403Z,5.8
2015-10-26T02:29:41.203Z,5.8
2015-10-26T02:30:43.004Z,5.8
2015-10-26T02:31:44.803Z,5.8
2015-10-26T02:32:46.603Z,5.8
2015-10-26T02:33:48.387Z,5.7
2015-10-26T02:34:50.187Z,5.7
2015-10-26T02:35:52.001Z,5.7
2015-10-26T02:36:53.785Z,5.7
2015-10-26T02:37:55.632Z,5.7
2015-10-26T02:38:57.369Z,5.7
2015-10-26T02:39:59.169Z,5.7
2015-10-26T02:41:00.968Z,5.7
2015-10-26T02:42:02.768Z,5.7
2015-10-26T02:43:04.568Z,5.7
2015-10-26T02:44:06.367Z,5.6
2015-10-26T02:45:08.167Z,5.6
2015-10-26T02:46:09.967Z,5.6
2015-10-26T02:47:11.766Z,5.6
2015-10-26T02:48:13.628Z,5.6
2015-10-26T02:50:17.164Z,5.6
2015-10-26T02:51:18.964Z,5.5
2015-10-26T02:52:20.764Z,5.6
2015-10-26T02:53:22.564Z,5.5
2015-10-26T02:54:24.628Z,5.5
2015-10-26T02:55:26.413Z,5.5
2015-10-26T02:56:28.462Z,5.5
2015-10-26T02:57:30.528Z,5.5
2015-10-26T02:58:32.639Z,5.5
2015-10-26T02:59:34.378Z,5.5
2015-10-26T03:00:36.692Z,5.5
2015-10-26T03:01:38.741Z,5.5
2015-10-26T03:02:40.807Z,5.5
2015-10-26T03:03:43.106Z,5.5
2015-10-26T03:04:45.422Z,5.5
2015-10-26T03:05:47.737Z,5.4
2015-10-26T03:06:50.041Z,5.4
2015-10-26T03:07:52.358Z,5.4
2015-10-26T03:08:54.735Z,5.4
2015-10-26T03:09:56.471Z,5.4
2015-10-26T03:10:58.788Z,5.4
2015-10-26T03:12:01.102Z,5.4
2015-10-26T03:13:03.420Z,5.4
2015-10-26T03:14:05.735Z,5.3
2015-10-26T03:15:08.051Z,5.3
2015-10-26T03:17:12.666Z,5.3
2015-10-26T03:18:14.980Z,5.3
2015-10-26T03:19:17.358Z,5.3
2015-10-26T03:20:19.096Z,5.3
2015-10-26T03:21:21.411Z,5.3
2015-10-26T03:22:23.726Z,5.3
2015-10-26T03:23:26.042Z,5.3
2015-10-26T03:24:28.357Z,5.3
2015-10-26T03:25:30.656Z,5.3
2015-10-26T03:26:32.971Z,5.3
2015-10-26T03:27:35.287Z,5.3
2015-10-26T03:28:37.602Z,5.2
2015-10-26T03:29:39.980Z,5.2
2015-10-26T03:30:41.717Z,5.2
2015-10-26T03:31:44.032Z,5.2
2015-10-26T03:32:46.348Z,5.2
2015-10-26T03:33:48.662Z,5.2
2015-10-26T03:34:50.962Z,5.2
2015-10-26T03:35:53.277Z,5.2
2015-10-26T03:36:55.593Z,5.1
2015-10-26T03:37:57.908Z,5.1
2015-10-26T03:38:56.379Z,5.1
2015-10-26T03:39:54.898Z,5.1
2015-10-26T03:40:56.651Z,5.1
2015-10-26T03:41:58.965Z,5.1
2015-10-26T03:43:01.281Z,5.1
2015-10-26T03:44:03.596Z,5.1
2015-10-26T03:45:05.912Z,5.1
2015-10-26T03:46:08.212Z,5.1
2015-10-26T03:47:10.527Z,5
2015-10-26T03:48:12.842Z,5
2015-10-26T03:49:15.157Z,5
2015-10-26T03:50:17.534Z,5
2015-10-26T03:51:19.272Z,5
2015-10-26T03:52:21.587Z,5
2015-10-26T03:53:23.903Z,5
2015-10-26T03:54:26.217Z,5
2015-10-26T03:55:24.689Z,4.9
2015-10-26T03:56:23.161Z,5
2015-10-26T03:57:21.612Z,4.9
2015-10-26T03:58:20.065Z,4.9
2015-10-26T03:59:18.518Z,4.9
2015-10-26T04:00:17.017Z,4.9
2015-10-26T04:01:18.752Z,4.9
2015-10-26T04:02:17.203Z,4.9
2015-10-26T04:03:15.667Z,4.9
2015-10-26T04:04:14.132Z,4.9
2015-10-26T04:05:12.597Z,4.9
2015-10-26T04:06:11.063Z,4.9
2015-10-26T04:07:09.547Z,4.9
2015-10-26T04:08:08.000Z,4.9
2015-10-26T04:09:06.470Z,4.9
2015-10-26T04:10:05.002Z,4.8
2015-10-26T04:11:06.736Z,4.8
2015-10-26T04:12:05.206Z,4.9
2015-10-26T04:13:03.676Z,4.8
2015-10-26T04:14:02.147Z,4.8
2015-10-26T04:15:00.616Z,4.8
2015-10-26T04:15:59.087Z,4.8
2015-10-26T04:16:57.807Z,4.8
2015-10-26T04:17:56.529Z,4.8
2015-10-26T04:18:55.265Z,4.8
2015-10-26T04:19:53.784Z,4.8
2015-10-26T04:20:55.520Z,4.7
2015-10-26T04:21:54.257Z,4.8
2015-10-26T04:22:52.978Z,4.7
2015-10-26T04:23:51.701Z,4.7
2015-10-26T04:24:50.437Z,4.7
2015-10-26T04:25:49.159Z,4.7
2015-10-26T04:26:47.880Z,4.7
2015-10-26T04:27:46.617Z,4.7
2015-10-26T04:28:45.339Z,4.7
2015-10-26T04:29:44.123Z,4.7
2015-10-26T04:30:45.875Z,4.7
2015-10-26T04:31:44.598Z,4.7
2015-10-26T04:32:43.317Z,4.7
2015-10-26T04:33:42.037Z,4.7
2015-10-26T04:34:40.775Z,4.7
2015-10-26T04:35:39.496Z,4.7
2015-10-26T04:36:38.217Z,4.7
2015-10-26T04:37:36.955Z,4.7
2015-10-26T04:38:35.675Z,4.7
2015-10-26T04:39:34.460Z,4.7
2015-10-26T04:40:36.197Z,4.6
2015-10-26T04:41:34.934Z,4.6
2015-10-26T04:42:33.655Z,4.6
2015-10-26T04:43:32.378Z,4.6
2015-10-26T04:44:31.114Z,4.6
2015-10-26T04:45:29.836Z,4.6
2015-10-26T04:46:28.572Z,4.6
2015-10-26T04:47:27.294Z,4.6
2015-10-26T04:48:26.016Z,4.6
2015-10-26T04:49:24.816Z,4.6
2015-10-26T04:50:26.553Z,4.5
2015-10-26T04:51:25.274Z,4.5
2015-10-26T04:52:24.011Z,4.6
2015-10-26T04:53:22.733Z,4.5
2015-10-26T04:54:21.470Z,4.5
2015-10-26T04:55:20.191Z,4.5
2015-10-26T04:56:18.913Z,4.5
2015-10-26T04:57:17.635Z,4.5
2015-10-26T04:58:16.372Z,4.5
2015-10-26T04:59:15.156Z,4.5
2015-10-26T05:00:16.893Z,4.5
2015-10-26T05:01:15.630Z,4.5
2015-10-26T05:02:14.617Z,4.5
2015-10-26T05:03:13.604Z,4.5
2015-10-26T05:04:12.576Z,4.5
2015-10-26T05:05:11.563Z,4.5
2015-10-26T05:06:10.300Z,4.5
2015-10-26T05:07:09.271Z,4.5
2015-10-26T05:08:08.258Z,4.5
2015-10-26T05:09:07.308Z,4.5
2015-10-26T05:10:09.061Z,4.5
2015-10-26T05:11:08.048Z,4.4
2015-10-26T05:12:07.019Z,4.4
2015-10-26T05:13:06.007Z,4.4
2015-10-26T05:14:04.994Z,4.4
2015-10-26T05:15:03.981Z,4.4
2015-10-26T05:16:02.968Z,4.4
2015-10-26T05:17:01.955Z,4.4
2015-10-26T05:18:00.926Z,4.4
2015-10-26T05:18:59.976Z,4.4
2015-10-26T05:20:01.713Z,4.4
2015-10-26T05:21:00.701Z,4.4
2015-10-26T05:21:59.688Z,4.3
2015-10-26T05:22:58.674Z,4.3
2015-10-26T05:23:57.646Z,4.3
2015-10-26T05:24:56.633Z,4.3
2015-10-26T05:25:55.621Z,4.3
2015-10-26T05:26:57.638Z,4.3
2015-10-26T05:27:56.626Z,4.3
2015-10-26T05:28:52.626Z,4.2
2015-10-26T05:29:54.362Z,4.2
2015-10-26T05:31:55.369Z,4.2
2015-10-26T05:34:49.033Z,4.2
2015-10-26T05:35:47.770Z,4.2
2015-10-26T05:36:46.492Z,4.1
2015-10-26T05:37:45.479Z,4.1
2015-10-26T05:38:44.529Z,4.1
2015-10-26T05:39:46.266Z,4.1
2015-10-26T05:40:45.004Z,4.1
2015-10-26T05:41:43.724Z,4.1
2015-10-26T05:42:42.462Z,4.1
2015-10-26T05:43:41.182Z,4.1
2015-10-26T05:44:39.920Z,4.1
2015-10-26T05:45:38.642Z,4.1
2015-10-26T05:46:37.378Z,4.1
2015-10-26T05:47:36.100Z,4.1
2015-10-26T05:48:34.884Z,4
2015-10-26T05:49:36.637Z,4
2015-10-26T05:50:35.358Z,4
2015-10-26T05:51:34.096Z,4
2015-10-26T05:52:32.817Z,4
2015-10-26T05:53:31.554Z,4
2015-10-26T05:54:30.275Z,4
2015-10-26T05:55:29.012Z,4
2015-10-26T05:56:27.734Z,3.9
2015-10-26T05:57:26.468Z,3.9
2015-10-26T05:58:25.253Z,3.9
2015-10-26T05:59:27.005Z,3.9
2015-10-26T06:00:25.727Z,3.9
2015-10-26T06:01:24.464Z,3.9
2015-10-26T06:02:23.186Z,3.9
2015-10-26T06:03:21.922Z,3.9
2015-10-26T06:04:20.644Z,3.9
2015-10-26T06:05:19.631Z,3.9
2015-10-26T06:06:18.352Z,3.9
2015-10-26T06:07:17.089Z,3.9
2015-10-26T06:08:15.873Z,3.9
2015-10-26T06:09:17.626Z,3.9
2015-10-26T06:10:16.614Z,3.9
2015-10-26T06:11:15.601Z,3.8
2015-10-26T06:12:14.588Z,3.9
2015-10-26T06:13:13.309Z,3.8
2015-10-26T06:14:12.297Z,3.9
2015-10-26T06:15:11.300Z,3.9
2015-10-26T06:16:10.270Z,3.8
2015-10-26T06:17:09.258Z,3.9
2015-10-26T06:18:08.292Z,3.9
2015-10-26T06:19:10.044Z,3.9
2015-10-26T06:20:09.031Z,3.9
2015-10-26T06:21:08.020Z,3.9
2015-10-26T06:22:07.006Z,3.9
2015-10-26T06:23:06.256Z,3.9
2015-10-26T06:24:05.494Z,3.9
2015-10-26T06:25:04.731Z,3.9
2015-10-26T06:26:03.967Z,3.9
2015-10-26T06:27:03.220Z,3.9
2015-10-26T06:28:02.520Z,3.9
2015-10-26T06:29:04.272Z,3.9
2015-10-26T06:30:03.510Z,3.9
2015-10-26T06:31:02.763Z,3.9
2015-10-26T06:32:02.000Z,3.9
2015-10-26T06:33:01.236Z,3.9
2015-10-26T06:34:00.489Z,3.9
2015-10-26T06:34:59.727Z,4
2015-10-26T06:35:58.979Z,4
2015-10-26T06:36:58.216Z,3.9
2015-10-26T06:37:57.516Z,4
2015-10-26T06:38:59.269Z,4
2015-10-26T06:39:58.521Z,4.1
2015-10-26T06:40:57.758Z,4.1
2015-10-26T06:41:56.995Z,4
2015-10-26T06:42:56.249Z,4
2015-10-26T06:43:55.485Z,4.1
2015-10-26T06:44:54.722Z,4.1
2015-10-26T06:45:53.974Z,4.1
2015-10-26T06:46:53.213Z,4.1
2015-10-26T06:47:52.512Z,4.1
2015-10-26T06:48:54.266Z,4.1
2015-10-26T06:49:53.502Z,4.1
2015-10-26T06:50:52.755Z,4.1
2015-10-26T06:51:51.991Z,4.2
2015-10-26T06:52:51.494Z,4.2
2015-10-26T06:53:50.997Z,4.2
2015-10-26T06:54:50.485Z,4.2
2015-10-26T06:55:49.987Z,4.3
2015-10-26T06:56:49.490Z,4.3
2015-10-26T06:57:49.047Z,4.3
2015-10-26T06:58:50.799Z,4.4
2015-10-26T06:59:50.299Z,4.3
2015-10-26T07:00:50.052Z,4.4
2015-10-26T07:01:49.820Z,4.4
2015-10-26T07:02:49.573Z,4.4
2015-10-26T07:03:49.311Z,4.5
2015-10-26T07:04:49.078Z,4.5
2015-10-26T07:05:48.816Z,4.5
2015-10-26T07:06:48.584Z,4.5
2015-10-26T07:07:48.399Z,4.5
2015-10-26T07:08:50.152Z,4.5
2015-10-26T07:09:49.905Z,4.5
2015-10-26T07:10:49.658Z,4.6
2015-10-26T07:11:49.410Z,4.6
2015-10-26T07:12:49.163Z,4.6
2015-10-26T07:13:48.916Z,4.7
2015-10-26T07:14:48.669Z,4.7
2015-10-26T07:15:48.422Z,4.7
2015-10-26T07:16:48.174Z,4.7
2015-10-26T07:17:48.004Z,4.8
2015-10-26T07:18:49.741Z,4.8
2015-10-26T07:19:49.494Z,4.8
2015-10-26T07:20:49.247Z,4.8
2015-10-26T07:21:48.999Z,4.9
2015-10-26T07:22:48.753Z,4.9
2015-10-26T07:23:48.505Z,4.9
2015-10-26T07:24:48.258Z,4.9
2015-10-26T07:25:48.010Z,4.9
2015-10-26T07:26:47.763Z,4.9
2015-10-26T07:27:47.579Z,5
2015-10-26T07:28:49.316Z,5
2015-10-26T07:29:49.085Z,5.1
2015-10-26T07:30:48.821Z,5.1
2015-10-26T07:31:48.574Z,5.1
2015-10-26T07:32:48.343Z,5.1
2015-10-26T07:33:48.080Z,5.2
2015-10-26T07:34:47.833Z,5.2
2015-10-26T07:35:47.851Z,5.2
2015-10-26T07:36:47.604Z,5.2
2015-10-26T07:37:47.404Z,5.3
2015-10-26T07:38:49.156Z,5.3
2015-10-26T07:39:48.909Z,5.3
2015-10-26T07:40:48.912Z,5.3
2015-10-26T07:41:48.930Z,5.3
2015-10-26T07:42:48.667Z,5.4
2015-10-26T07:43:48.685Z,5.5
2015-10-26T07:44:48.688Z,5.5
2015-10-26T07:45:48.438Z,5.5
2015-10-26T07:46:48.441Z,5.6
2015-10-26T07:47:48.507Z,5.6
2015-10-26T07:48:50.262Z,5.6
2015-10-26T07:49:50.248Z,5.7
2015-10-26T07:50:50.251Z,5.7
2015-10-26T07:51:50.270Z,5.7
2015-10-26T07:52:50.288Z,5.8
2015-10-26T07:53:50.291Z,5.8
2015-10-26T07:54:50.294Z,5.9
2015-10-26T07:55:50.296Z,5.9
2015-10-26T07:57:50.364Z,6.1
2015-10-26T07:58:52.116Z,6.1
2015-10-26T07:59:52.120Z,6.1
2015-10-26T08:00:52.122Z,6.2
2015-10-26T08:01:52.125Z,6.3
2015-10-26T08:02:52.128Z,6.3
2015-10-26T08:03:52.145Z,6.4
2015-10-26T08:04:52.398Z,6.5
2015-10-26T08:05:52.400Z,6.5
2015-10-26T08:06:52.670Z,6.5
2015-10-26T08:07:52.969Z,6.6
2015-10-26T08:08:54.706Z,6.7
2015-10-26T08:09:54.709Z,6.7
2015-10-26T08:10:54.977Z,6.8
2015-10-26T08:11:55.246Z,6.9
2015-10-26T08:12:55.232Z,6.9
2015-10-26T08:13:55.235Z,7
2015-10-26T08:14:55.254Z,7.1
2015-10-26T08:15:55.240Z,7.2
2015-10-26T08:16:55.227Z,7.3
2015-10-26T08:17:55.293Z,7.4
2015-10-26T08:18:57.030Z,7.5
2015-10-26T08:19:57.033Z,7.6
2015-10-26T08:20:57.036Z,7.7
2015-10-26T08:21:56.771Z,7.8
2015-10-26T08:22:56.507Z,7.9
2015-10-26T08:23:56.276Z,8
2015-10-26T08:24:56.013Z,8.1
2015-10-26T08:25:55.749Z,8.3
2015-10-26T08:26:55.487Z,8.4
2015-10-26T08:27:55.271Z,8.5
2015-10-26T08:28:57.007Z,8.6
2015-10-26T08:29:56.746Z,8.7
2015-10-26T08:30:56.232Z,8.8
2015-10-26T08:31:55.453Z,8.9
2015-10-26T08:32:54.675Z,8.9
2015-10-26T08:33:53.896Z,9.1
2015-10-26T08:34:52.852Z,9.1
2015-10-26T08:35:51.574Z,9.2
2015-10-26T08:36:50.279Z,9.3
2015-10-26T08:37:49.031Z,9.4
2015-10-26T08:38:50.754Z,9.5
2015-10-26T08:39:53.054Z,9.6
2015-10-26T08:40:55.337Z,9.7
2015-10-26T08:41:57.653Z,9.8
2015-10-26T08:42:59.703Z,9.9
2015-10-26T08:44:01.487Z,10
2015-10-26T08:45:03.270Z,10.1
2015-10-26T08:46:04.773Z,10.1
2015-10-26T08:47:06.042Z,10.2
2015-10-26T08:48:07.102Z,10.3
2015-10-26T08:49:08.829Z,10.4
2015-10-26T08:50:09.347Z,10.5
2015-10-26T08:51:09.908Z,10.5
2015-10-26T08:52:10.083Z,10.6
2015-10-26T08:53:09.757Z,10.7
2015-10-26T08:54:09.229Z,10.7
2015-10-26T08:55:08.466Z,10.8
2015-10-26T08:56:07.672Z,10.9
2015-10-26T08:57:06.612Z,10.9
2015-10-26T08:58:05.365Z,10.9
2015-10-26T08:59:07.071Z,11
2015-10-26T09:00:05.760Z,11.1
2015-10-26T09:01:04.467Z,11.2
2015-10-26T09:03:05.425Z,11.3
2015-10-26T09:04:07.209Z,11.3
2015-10-26T09:05:08.962Z,11.4
2015-10-26T09:06:10.731Z,11.5
2015-10-26T09:07:12.498Z,11.5
2015-10-26T09:08:14.064Z,11.7
2015-10-26T09:09:15.785Z,11.7
2015-10-26T09:10:17.288Z,11.7
2015-10-26T09:11:18.557Z,11.8
2015-10-26T09:12:19.809Z,11.9
2015-10-26T09:13:20.812Z,11.9
2015-10-26T09:14:21.549Z,12
2015-10-26T09:15:22.037Z,12.1
2015-10-26T09:16:22.524Z,12.1
2015-10-26T09:17:22.745Z,12.2
2015-10-26T09:18:22.498Z,12.3
2015-10-26T09:19:24.220Z,12.3
2015-10-26T09:20:23.659Z,12.3
2015-10-26T09:21:22.881Z,12.4
2015-10-26T09:22:21.836Z,12.4
2015-10-26T09:23:20.496Z,12.4
2015-10-26T09:24:19.201Z,12.5
2015-10-26T09:25:17.626Z,12.5
2015-10-26T09:26:16.079Z,12.6
2015-10-26T09:27:18.332Z,12.6
2015-10-26T09:28:20.665Z,12.7
2015-10-26T09:29:22.372Z,12.7
2015-10-26T09:30:24.421Z,12.8
2015-10-26T09:31:26.408Z,12.9
2015-10-26T09:32:28.427Z,12.9
2015-10-26T09:33:30.211Z,12.9
2015-10-26T09:34:31.948Z,13
2015-10-26T09:35:33.717Z,13
2015-10-26T09:36:35.469Z,13
2015-10-26T09:37:36.972Z,13.1
2015-10-26T09:38:38.272Z,13.1
2015-10-26T09:39:39.978Z,13.1
2015-10-26T09:40:41.230Z,13.2
2015-10-26T09:41:42.217Z,13.3
2015-10-26T09:42:42.954Z,13.3
2015-10-26T09:43:43.707Z,13.3
2015-10-26T09:44:43.929Z,13.3
2015-10-26T09:45:43.632Z,13.4
2015-10-26T09:46:43.337Z,13.4
2015-10-26T09:47:43.059Z,13.4
2015-10-26T09:48:42.593Z,13.4
2015-10-26T09:49:44.267Z,13.4
2015-10-26T09:50:43.723Z,13.5
2015-10-26T09:51:43.195Z,13.5
2015-10-26T09:52:42.620Z,13.5
2015-10-26T09:53:41.810Z,13.5
2015-10-26T09:54:40.751Z,13.6
2015-10-26T09:55:39.691Z,13.5
2015-10-26T09:56:38.631Z,13.6
2015-10-26T09:57:37.571Z,13.6
2015-10-26T09:58:36.574Z,13.6
2015-10-26T09:59:38.264Z,13.6
2015-10-26T10:00:37.205Z,13.6
2015-10-26T10:01:35.879Z,13.6
2015-10-26T10:02:34.303Z,13.6
2015-10-26T10:03:36.587Z,13.6
2015-10-26T10:04:37.824Z,13.6
2015-10-26T10:05:39.327Z,13.6
2015-10-26T10:06:40.846Z,13.6
2015-10-26T10:07:42.332Z,13.6
2015-10-26T10:08:44.147Z,13.6
2015-10-26T10:09:45.839Z,13.6
2015-10-26T10:10:47.591Z,13.6
2015-10-26T10:11:49.109Z,13.6
2015-10-26T10:12:50.347Z,13.6
2015-10-26T10:13:51.849Z,13.5
2015-10-26T10:14:53.352Z,13.5
2015-10-26T10:15:54.855Z,13.6
2015-10-26T10:16:56.358Z,13.5
2015-10-26T10:17:57.860Z,13.6
2015-10-26T10:18:59.425Z,13.6
2015-10-26T10:20:01.116Z,13.6
2015-10-26T10:21:02.635Z,13.6
2015-10-26T10:22:03.888Z,13.6
2015-10-26T10:23:04.874Z,13.6
2015-10-26T10:24:05.861Z,13.6
2015-10-26T10:25:06.582Z,13.6
2015-10-26T10:26:07.319Z,13.5
2015-10-26T10:27:08.057Z,13.5
2015-10-26T10:28:08.794Z,13.5
2015-10-26T10:29:09.593Z,13.5
2015-10-26T10:30:11.285Z,13.5
2015-10-26T10:31:12.271Z,13.5
2015-10-26T10:32:13.258Z,13.5
2015-10-26T10:33:14.001Z,13.5
2015-10-26T10:34:14.721Z,13.5
2015-10-26T10:35:15.209Z,13.4
2015-10-26T10:36:15.430Z,13.4
2015-10-26T10:37:15.651Z,13.4
2015-10-26T10:38:16.124Z,13.4
2015-10-26T10:39:16.657Z,13.3
2015-10-26T10:40:18.379Z,13.3
2015-10-26T10:41:18.834Z,13.3
2015-10-26T10:42:19.571Z,13.3
2015-10-26T10:43:20.059Z,13.3
2015-10-26T10:44:20.530Z,13.3
2015-10-26T10:45:20.751Z,13.3
2015-10-26T10:46:21.239Z,13.3
2015-10-26T10:47:21.710Z,13.2
2015-10-26T10:48:22.198Z,13.3
2015-10-26T10:49:22.731Z,13.2
2015-10-26T10:50:24.437Z,13.2
2015-10-26T10:51:24.909Z,13.2
2015-10-26T10:52:25.114Z,13.1
2015-10-26T10:53:25.337Z,13.1
2015-10-26T10:54:25.308Z,13.1
2015-10-26T10:55:25.279Z,13.1
2015-10-26T10:56:24.984Z,13.1
2015-10-26T10:57:24.957Z,13
2015-10-26T10:58:24.935Z,13
2015-10-26T10:59:24.969Z,13
2015-10-26T11:00:26.659Z,13
2015-10-26T11:01:26.365Z,13
2015-10-26T11:02:26.071Z,13
2015-10-26T11:03:25.792Z,13
2015-10-26T11:04:25.763Z,12.9
2015-10-26T11:05:25.469Z,12.9
2015-10-26T11:06:25.441Z,12.9
2015-10-26T11:07:25.147Z,12.9
2015-10-26T11:08:24.866Z,12.9
2015-10-26T11:09:24.634Z,12.9
2015-10-26T11:10:26.343Z,12.8
2015-10-26T11:11:26.046Z,12.9
2015-10-26T11:12:26.017Z,12.9
2015-10-26T11:13:25.738Z,12.8
2015-10-26T11:14:25.444Z,12.8
2015-10-26T11:15:25.165Z,12.8
2015-10-26T11:16:24.888Z,12.8
2015-10-26T11:17:24.594Z,12.7
2015-10-26T11:18:24.299Z,12.7
2015-10-26T11:19:23.817Z,12.7
2015-10-26T11:20:25.524Z,12.7
2015-10-26T11:21:24.729Z,12.7
2015-10-26T11:22:23.920Z,12.7
2015-10-26T11:23:23.126Z,12.7
2015-10-26T11:24:22.332Z,12.7
2015-10-26T11:25:21.538Z,12.6
2015-10-26T11:26:19.977Z,12.6
2015-10-26T11:27:18.652Z,12.6
2015-10-26T11:28:17.342Z,12.5
2015-10-26T11:29:16.095Z,12.5
2015-10-26T11:30:17.784Z,12.5
2015-10-26T11:31:16.725Z,12.6
2015-10-26T11:32:15.682Z,12.5
2015-10-26T11:33:14.887Z,12.5
2015-10-26T11:34:14.093Z,12.5
2015-10-26T11:35:13.284Z,12.5
2015-10-26T11:36:12.490Z,12.5
2015-10-26T11:37:11.695Z,12.5
2015-10-26T11:38:11.151Z,12.5
2015-10-26T11:39:10.685Z,12.5
2015-10-26T11:40:12.375Z,12.5
2015-10-26T11:41:12.081Z,12.5
2015-10-26T11:42:11.286Z,12.5
2015-10-26T11:43:10.492Z,12.5
2015-10-26T11:44:09.683Z,12.5
2015-10-26T11:45:08.639Z,12.5
2015-10-26T11:46:07.845Z,12.4
2015-10-26T11:47:07.051Z,12.4
2015-10-26T11:48:06.506Z,12.4
2015-10-26T11:49:05.774Z,12.4
2015-10-26T11:50:07.465Z,12.4
2015-10-26T11:51:06.670Z,12.4
2015-10-26T11:52:05.877Z,12.5
2015-10-26T11:53:05.080Z,12.5
2015-10-26T11:54:04.535Z,12.5
2015-10-26T11:55:03.741Z,12.4
2015-10-26T11:56:02.947Z,12.4
2015-10-26T11:57:02.138Z,12.4
2015-10-26T11:59:03.377Z,12.4
2015-10-26T12:00:02.052Z,12.4
2015-10-26T12:01:01.008Z,12.4
2015-10-26T12:01:59.947Z,12.4
2015-10-26T12:02:58.888Z,12.3
2015-10-26T12:03:57.844Z,12.4
2015-10-26T12:04:56.784Z,12.4
2015-10-26T12:05:55.990Z,12.4
2015-10-26T12:06:55.196Z,12.4
2015-10-26T12:07:53.886Z,12.4
2015-10-26T12:08:52.388Z,12.4
2015-10-26T12:09:54.094Z,12.4
2015-10-26T12:10:52.769Z,12.3
2015-10-26T12:11:51.459Z,12.3
2015-10-26T12:12:50.415Z,12.4
2015-10-26T12:13:49.105Z,12.3
2015-10-26T12:14:47.780Z,12.4
2015-10-26T12:15:46.735Z,12.4
2015-10-26T12:16:45.677Z,12.3
2015-10-26T12:17:44.616Z,12.3
2015-10-26T12:18:43.635Z,12.3
2015-10-26T12:19:45.326Z,12.3
2015-10-26T12:20:44.281Z,12.3
2015-10-26T12:21:43.237Z,12.3
2015-10-26T12:22:42.177Z,12.3
2015-10-26T12:23:41.117Z,12.3
2015-10-26T12:24:40.089Z,12.3
2015-10-26T12:25:39.279Z,12.3
2015-10-26T12:26:38.485Z,12.3
2015-10-26T12:27:37.691Z,12.3
2015-10-26T12:28:36.941Z,12.3
2015-10-26T12:29:38.648Z,12.3
2015-10-26T12:30:37.852Z,12.3
2015-10-26T12:31:37.308Z,12.3
2015-10-26T12:32:36.779Z,12.4
2015-10-26T12:33:35.721Z,12.3
2015-10-26T12:34:34.926Z,12.3
2015-10-26T12:35:34.131Z,12.3
2015-10-26T12:36:33.587Z,12.3
2015-10-26T12:37:33.043Z,12.3
2015-10-26T12:38:32.562Z,12.3
2015-10-26T12:39:34.268Z,12.3
2015-10-26T12:40:33.740Z,12.3
2015-10-26T12:41:33.195Z,12.3
2015-10-26T12:42:32.651Z,12.3
2015-10-26T12:43:32.106Z,12.3
2015-10-26T12:44:31.562Z,12.3
2015-10-26T12:45:31.284Z,12.3
2015-10-26T12:46:31.006Z,12.3
2015-10-26T12:47:30.461Z,12.3
2015-10-26T12:48:29.980Z,12.3
2015-10-26T12:49:31.686Z,12.3
2015-10-26T12:50:31.157Z,12.3
2015-10-26T12:51:30.863Z,12.4
2015-10-26T12:52:30.584Z,12.3
2015-10-26T12:53:30.291Z,12.4
2015-10-26T12:54:30.012Z,12.3
2015-10-26T12:55:29.467Z,12.3
2015-10-26T12:56:29.189Z,12.4
2015-10-26T12:57:28.645Z,12.4
2015-10-26T12:58:28.163Z,12.3
2015-10-26T12:59:29.869Z,12.3
2015-10-26T13:00:29.325Z,12.3
2015-10-26T13:01:28.530Z,12.3
2015-10-26T13:02:27.735Z,12.3
2015-10-26T13:03:26.932Z,12.3
2015-10-26T13:04:26.378Z,12.3
2015-10-26T13:05:25.825Z,12.4
2015-10-26T13:06:25.287Z,12.4
2015-10-26T13:07:24.735Z,12.3
2015-10-26T13:08:24.249Z,12.4
2015-10-26T13:09:25.952Z,12.3
2015-10-26T13:10:25.404Z,12.3
2015-10-26T13:11:24.872Z,12.4
2015-10-26T13:12:24.324Z,12.3
2015-10-26T13:13:23.779Z,12.3
2015-10-26T13:14:23.249Z,12.4
2015-10-26T13:15:22.439Z,12.4
2015-10-26T13:16:21.643Z,12.4
2015-10-26T13:17:20.847Z,12.3
2015-10-26T13:18:20.115Z,12.4
2015-10-26T13:19:21.821Z,12.4
2015-10-26T13:20:21.276Z,12.4
2015-10-26T13:21:20.731Z,12.3
2015-10-26T13:22:19.937Z,12.4
2015-10-26T13:23:19.142Z,12.4
2015-10-26T13:24:18.347Z,12.4
2015-10-26T13:25:17.554Z,12.4
2015-10-26T13:26:16.759Z,12.4
2015-10-26T13:27:15.965Z,12.4
2015-10-26T13:28:15.217Z,12.3
2015-10-26T13:29:16.923Z,12.4
2015-10-26T13:30:16.129Z,12.3
2015-10-26T13:31:15.335Z,12.4
2015-10-26T13:32:14.540Z,12.4
2015-10-26T13:33:13.746Z,12.4
2015-10-26T13:34:12.953Z,12.4
2015-10-26T13:35:12.142Z,12.4
2015-10-26T13:36:11.348Z,12.4
2015-10-26T13:37:10.554Z,12.4
2015-10-26T13:38:09.806Z,12.3
2015-10-26T13:39:11.512Z,12.4
2015-10-26T13:40:10.469Z,12.4
2015-10-26T13:41:09.408Z,12.4
2015-10-26T13:42:08.364Z,12.4
2015-10-26T13:43:07.305Z,12.4
2015-10-26T13:44:06.261Z,12.4
2015-10-26T13:45:05.466Z,12.5
2015-10-26T13:46:04.673Z,12.4
2015-10-26T13:47:03.863Z,12.4
2015-10-26T13:48:02.863Z,12.4
2015-10-26T13:49:04.586Z,12.5
2015-10-26T13:50:03.524Z,12.4
2015-10-26T13:51:02.464Z,12.4